ADDS TAF Board (Experimental) INFO Settings
IDs:

KMCI - Kansas City Intl, MO, US

Issued at 0520 UTC 04 Sep 2015
Updated at: 1036 UTC 04 Sep 2015
Time0953Z 04/11Z 04/12Z 04/13Z 04/14Z 04/15Z 04/16Z 04/17Z 04/18Z 04/19Z 04/20Z 04/21Z 04/22Z 04/23Z
Type OBS PRVL PRVL PRVL PRVL PRVL PRVL PRVL PRVL PRVL PRVL PRVL PRVL PRVL
VIS 10 >6 >6 >6 >6 >6 >6 >6 >6 >6 >6 >6 >6 >6
CIG -- 200 200 200 200 200 -- -- -- -- -- -- -- --
Cover SCT BKN BKN BKN BKN BKN SCT SCT SCT SCT SCT SCT SCT SCT
FltCat VFR VFR VFR VFR VFR VFR VFR VFR VFR VFR VFR VFR VFR VFR
WX -- -- -- -- -- -- -- -- -- -- -- -- -- --
WDir 170 170 170 170 170 170 180 180 180 180 180 180 180 180
WSpd 8 7 7 7 7 7 11 11 11 11 11 11 11 11
WGst -- -- -- -- -- -- -- -- -- -- -- -- -- --
R01/19
XWnd -3 -3 -3 -3 -3 -3 -2 -2 -2 -2 -2 -2 -2 -2
HWnd -7 -6 -6 -6 -6 -6 -11 -11 -11 -11 -11 -11 -11 -11
R09/27
XWnd -8 -7 -7 -7 -7 -7 -11 -11 -11 -11 -11 -11 -11 -11
HWnd 2 2 2 2 2 2 1 1 1 1 1 1 1 1

NOTE: TEMPO conditions in [brackets]. Keep in mind TEMPO conditions might be better (lower impact) than prevailing conditions.

Raw TAF
KMCI 040520Z 0406/0506 17007KT P6SM BKN200
  FM041600 18011KT P6SM SCT200


Raw METAR
KMCI 040953Z 17008KT 10SM SCT200 22/19 A2993 RMK AO2 SLP123 T02220189
KMCI 040853Z 16009KT 10SM SCT200 23/19 A2994 RMK AO2 SLP124 T02280194 51002
KMCI 040753Z 16008KT 10SM SCT200 22/19 A2993 RMK AO2 SLP124 T02220194

METAR Board
Radar Display
Forecast Discussion

TAF Board Legend

Potential Impact
Threat None Slight Moderate High
Visibility (sm) ≥5.1 5.1>X≥3 3>X≥1 <1
Ceiling (100 ft) ≥30.1 30.1>X≥10 10>X≥5 <5
Wind Speed (kt) <10 10≤X<20 20≤X<30 ≥30
Wind Gust (kt) <15 15≤X<25 25≤X<35 ≥35
Weather No Wx Reported VCTS,-TS,-FZRA,SN TS,FZRA +TS,+FZRA,+SN